Flight Track Log - Related Links

Times and Time Zones

All times are in EDT time to prevent confusion due to time zone crossing. See the EGF2775 flight status page for this flight to view local times or setup timezone preferences in your user account.

Time Position Orientation Groundspeed Altitude Reporting Facility
EDT Latitude Longitude Course Direction KTS MPH feet Rate Location/Type
Thu 08:23:33 AM 40.6300 -89.6339 200° South 241 277 2,500  Level Kansas City Center
Thu 08:24:35 AM 40.5803 -89.6581 200° South 204 235 4,600 2,049 Climbing Kansas City Center
Thu 08:25:36 AM 40.5350 -89.7178 225° Southwest 217 250 6,700 2,361 Climbing Kansas City Center
Thu 08:26:37 AM 40.4744 -89.7900 222° Southwest 239 275 9,400 2,098 Climbing Kansas City Center
Thu 08:27:39 AM 40.4200 -89.8556 223° Southwest 258 297 11,000 1,415 Climbing Kansas City Center
Thu 08:28:40 AM 40.3592 -89.9286 222° Southwest 285 328 12,300 1,377 Climbing Kansas City Center
Thu 08:29:41 AM 40.2950 -90.0064 223° Southwest 307 353 13,800 1,463 Climbing Kansas City Center
Thu 08:30:43 AM 40.2292 -90.0844 222° Southwest 312 359 15,300 1,463 Climbing Kansas City Center
Thu 08:31:44 AM 40.1639 -90.1619 222° Southwest 313 360 16,800 1,279 Climbing Kansas City Center
Thu 08:32:45 AM 40.0986 -90.2406 223° Southwest 314 361 17,900 1,171 Climbing Kansas City Center
Thu 08:33:47 AM 40.0325 -90.3181 222° Southwest 315 362 19,200 1,317 Climbing Kansas City Center
Thu 08:34:48 AM 39.9656 -90.3972 222° Southwest 320 368 20,600 1,415 Climbing Kansas City Center
Thu 08:35:50 AM 39.8978 -90.4789 223° Southwest 324 373 22,100 1,463 Climbing Kansas City Center
Thu 08:36:51 AM 39.8303 -90.5581 222° Southwest 326 375 23,600 1,623 Climbing Kansas City Center
Thu 08:37:52 AM 39.7489 -90.6536 222° Southwest 327 376 25,400 1,463 Climbing Kansas City Center
Thu 08:38:54 AM 39.6922 -90.7214 223° Southwest 326 375 26,600 1,463 Climbing Kansas City Center
Thu 08:39:55 AM 39.6139 -90.8114 222° Southwest 320 368 28,400 1,561 Climbing Kansas City Center
Thu 08:40:57 AM 39.5522 -90.8839 222° Southwest 306 352 29,800 1,268 Climbing Kansas City Center
Thu 08:41:58 AM 39.4906 -90.9556 222° Southwest 304 350 31,000 1,024 Climbing Kansas City Center
Thu 08:43:00 AM 39.4283 -91.0283 222° Southwest 304 350 31,900 488 Climbing Kansas City Center
Thu 08:44:01 AM 39.3614 -91.1050 222° Southwest 312 359 32,000 49 Climbing Kansas City Center
Thu 08:45:03 AM 39.2869 -91.1903 222° Southwest 339 390 32,000 585 Level Kansas City Center
Thu 08:46:04 AM 39.2108 -91.2778 222° Southwest 360 414 33,200 984 Climbing Kansas City Center
Thu 08:47:05 AM 39.1403 -91.3614 223° Southwest 355 409 34,000 390 Climbing Kansas City Center
Thu 08:48:07 AM 39.0514 -91.4619 221° Southwest 354 407 34,000  Level Kansas City Center
Thu 08:49:08 AM 38.9769 -91.5469 222° Southwest 355 409 34,000  Level Kansas City Center
Thu 08:50:10 AM 38.9019 -91.6325 222° Southwest 357 411 34,000 634 Level Kansas City Center
Thu 08:51:11 AM 38.8203 -91.7231 221° Southwest 356 410 35,300 976 Climbing Kansas City Center
Thu 08:52:13 AM 38.7517 -91.8022 222° Southwest 339 390 36,000 341 Climbing Kansas City Center
Thu 08:53:14 AM 38.6803 -91.8836 222° Southwest 337 388 36,000  Level Kansas City Center
Thu 08:54:16 AM 38.6047 -91.9675 221° Southwest 352 405 36,000  Level Kansas City Center
Thu 08:55:18 AM 38.5294 -92.0519 221° Southwest 355 409 36,000  Level Kansas City Center
Thu 08:56:19 AM 38.4525 -92.1369 221° Southwest 361 415 36,000  Level Kansas City Center
Thu 08:57:21 AM 38.3775 -92.2208 221° Southwest 361 415 36,000  Level Kansas City Center
Thu 08:58:22 AM 38.3036 -92.3036 221° Southwest 359 413 36,000  Level Kansas City Center
Thu 08:59:24 AM 38.2147 -92.4006 221° Southwest 355 409 36,000  Level Kansas City Center
Thu 09:00:25 AM 38.1519 -92.4700 221° Southwest 353 406 36,000  Level Kansas City Center
Thu 09:01:27 AM 38.0794 -92.5503 221° Southwest 352 405 36,000  Level Kansas City Center
Thu 09:02:29 AM 37.9922 -92.6464 221° Southwest 351 404 36,000  Level Kansas City Center
Thu 09:03:30 AM 37.9189 -92.7267 221° Southwest 351 404 36,000  Level Kansas City Center
Thu 09:04:32 AM 37.8517 -92.7983 220° Southwest 350 403 36,000  Level Kansas City Center
Thu 09:05:33 AM 37.7639 -92.8942 221° Southwest 349 402 36,000  Level Kansas City Center
Thu 09:06:35 AM 37.6897 -92.9742 220° Southwest 349 402 36,000  Level Kansas City Center
Thu 09:07:36 AM 37.6156 -93.0536 220° Southwest 349 402 36,000  Level Kansas City Center
Thu 09:09:39 AM 37.4658 -93.2161 221° Southwest 352 405 36,000  Level Memphis Center
Thu 09:10:41 AM 37.3892 -93.2969 220° Southwest 353 406 36,000  Level Kansas City Center
Thu 09:11:43 AM 37.3072 -93.3703 215° Southwest 360 414 36,000  Level Kansas City Center
Thu 09:12:44 AM 37.2186 -93.4306 208° Southwest 362 417 36,000  Level Kansas City Center
Thu 09:13:46 AM 37.1317 -93.4961 211° Southwest 362 417 36,000  Level Kansas City Center
Thu 09:14:48 AM 37.0428 -93.5597 210° Southwest 362 417 36,000  Level Kansas City Center
Thu 09:15:49 AM 36.9364 -93.6356 210° Southwest 363 418 36,000  Level Kansas City Center
Thu 09:16:51 AM 36.8511 -93.6942 209° Southwest 366 421 36,000  Level Kansas City Center
Thu 09:17:52 AM 36.7614 -93.7581 210° Southwest 370 426 36,000  Level Kansas City Center
Thu 09:18:54 AM 36.6583 -93.8314 210° Southwest 370 426 36,000  Level Kansas City Center
Thu 09:19:59 AM 36.5683 -93.8939 209° Southwest 370 426 36,000  Level Memphis Center
Thu 09:21:01 AM 36.4722 -93.9461 204° Southwest 373 429 36,000  Level Memphis Center
Thu 09:22:03 AM 36.3753 -93.9950 202° Southwest 374 430 36,000  Level Memphis Center
Thu 09:23:05 AM 36.2769 -94.0450 202° Southwest 375 432 36,000  Level Memphis Center
Thu 09:24:07 AM 36.1794 -94.0958 203° Southwest 375 432 36,000  Level Memphis Center
Thu 09:25:09 AM 36.0614 -94.1556 202° Southwest 377 434 36,000  Level Memphis Center
Thu 09:26:11 AM 35.9625 -94.2044 202° Southwest 377 434 36,000  Level Memphis Center
Thu 09:27:13 AM 35.8631 -94.2547 202° Southwest 379 436 36,000  Level Memphis Center
Thu 09:28:15 AM 35.7639 -94.3053 202° Southwest 380 437 36,000  Level Memphis Center
Thu 09:29:17 AM 35.6644 -94.3544 202° Southwest 381 438 36,000  Level Memphis Center
Thu 09:30:19 AM 35.5647 -94.4042 202° Southwest 382 440 36,000  Level Memphis Center
Thu 09:31:21 AM 35.4650 -94.4544 202° Southwest 382 440 36,000  Level Memphis Center
Thu 09:32:23 AM 35.3511 -94.5114 202° Southwest 383 441 36,000  Level Memphis Center
Thu 09:33:25 AM 35.2531 -94.5594 202° Southwest 383 441 36,000  Level Memphis Center
Thu 09:34:27 AM 35.1525 -94.6092 202° Southwest 384 442 36,000  Level Memphis Center
Thu 09:35:29 AM 35.0447 -94.6617 202° Southwest 385 443 36,000  Level Memphis Center
Thu 09:36:31 AM 34.9589 -94.7375 216° Southwest 384 442 36,000  Level Memphis Center
Thu 09:37:33 AM 34.8789 -94.8233 221° Southwest 382 440 36,000  Level Memphis Center
Thu 09:38:29 AM 34.8078 -94.9011 222° Southwest 384 442 36,000 -203 Level Fort Worth Center
Thu 09:39:31 AM 34.7042 -94.9383 196° South 392 451 35,600 -1,016 Descending Fort Worth Center
Thu 09:40:33 AM 34.5722 -94.9067 169° South 399 459 33,900 -1,548 Descending Fort Worth Center
Thu 09:41:35 AM 34.4606 -94.9242 187° South 411 473 32,400 -1,452 Descending Fort Worth Center
Thu 09:42:37 AM 34.3811 -95.0122 222° Southwest 402 463 30,900 -1,452 Descending Fort Worth Center
Thu 09:43:39 AM 34.3103 -95.1169 231° Southwest 402 463 29,400 -1,452 Descending Fort Worth Center
Thu 09:44:41 AM 34.2406 -95.2186 230° Southwest 399 459 27,900 -1,536 Descending Fort Worth Center
Thu 09:45:44 AM 34.1222 -95.2797 203° Southwest 403 464 26,200 -1,536 Descending Fort Worth Center
Thu 09:46:46 AM 34.0128 -95.2794 180° South 398 458 24,700 -1,065 Descending Fort Worth Center
Thu 09:47:48 AM 33.9289 -95.3442 213° Southwest 380 437 24,000 -339 Descending Fort Worth Center
Thu 09:48:50 AM 33.8803 -95.4517 241° Southwest 370 426 24,000 -484 Level Fort Worth Center
Thu 09:49:52 AM 33.8328 -95.5625 243° Southwest 371 427 23,000 -1,355 Descending Fort Worth Center
Thu 09:50:54 AM 33.7744 -95.6839 240° Southwest 386 444 21,200 -1,742 Descending Fort Worth Center
Thu 09:51:56 AM 33.7175 -95.7911 237° Southwest 382 440 19,400 -1,742 Descending Fort Worth Center
Thu 09:52:58 AM 33.6514 -95.9153 237° Southwest 374 430 17,600 -1,680 Descending Fort Worth Center
Thu 09:54:01 AM 33.5981 -96.0192 238° Southwest 366 421 15,900 -1,632 Descending Fort Worth Center
Thu 09:55:03 AM 33.5414 -96.1261 238° Southwest 354 407 14,200 -1,632 Descending Fort Worth Center
Thu 09:56:06 AM 33.4903 -96.2250 238° Southwest 352 405 12,500 -1,403 Descending Fort Worth Center
Thu 09:57:07 AM 33.4386 -96.3211 237° Southwest 314 361 11,300 -732 Descending Fort Worth Center
Thu 09:58:09 AM 33.3969 -96.4017 238° Southwest 288 331 11,000 -484 Descending Fort Worth Center
Thu 09:59:11 AM 33.3333 -96.4653 220° Southwest 282 325 10,300 -1,065 Descending Fort Worth Center
Thu 10:00:13 AM 33.2603 -96.4808 190° South 272 313 8,800 -1,452 Descending Fort Worth Center
Thu 10:01:15 AM 33.2483 -96.5764 262° West 277 319 7,300 -1,403 Descending Fort Worth Center
Thu 10:02:17 AM 33.2447 -96.6617 267° West 261 300 5,900 -1,104 Descending Fort Worth Center
Thu 10:03:20 AM 33.2419 -96.7497 268° West 252 290 5,000 -432 Descending Fort Worth Center
Thu 10:04:22 AM 33.2406 -96.8317 269° West 247 284 5,000  Level Fort Worth Center
Thu 10:05:24 AM 33.2375 -96.9161 268° West 247 284 5,000  Level Fort Worth Center
Thu 10:06:26 AM 33.2361 -96.9961 269° West 230 265 5,000  Level Fort Worth Center
Thu 10:07:28 AM 33.1844 -97.0094 192° South 217 250 5,000  Level Fort Worth Center
Thu 10:08:30 AM 33.1258 -97.0089 180° South 193 222 5,000 -387 Level Fort Worth Center
Thu 10:09:32 AM 33.0797 -97.0094 181° South 169 194 4,200 -871 Descending Fort Worth Center
Thu 10:10:34 AM 33.0306 -97.0094 180° South 167 192 3,200 -912 Descending Fort Worth Center
Thu 10:11:37 AM 32.9878 -97.0097 180° South 155 178 2,300 -768 Descending Fort Worth Center
Thu 10:12:39 AM 32.9494 -97.0100 180° South 141 162 1,600 -726 Descending Fort Worth Center
Thu 10:13:41 AM 32.9111 -97.0100 180° South 132 152 800 -774 Descending Fort Worth Center
Thu 10:15:00 AM 32.8833 -97.0333 209° Southwest  Level FlightAware Approximate
Thu 10:22:00 AM 32.8981 -97.0235 209° Southwest  Level FlightAware Approximate
Thu 10:23:00 AM 32.8833 -97.0333 209° Southwest  Level FlightAware Approximate

Login

Don't have an account? Register now (free) for customized features, flight alerts, and more!